sensor_id;sensor_type;location;lat;lon;timestamp;pressure;altitude;pressure_sealevel;temperature;humidity
45050;BME280;61798;48.048;-1.928;2023-05-08T00:00:13;101533.78;;;11.38;100.00
45050;BME280;61798;48.048;-1.928;2023-05-08T00:02:19;101536.59;;;11.45;100.00
45050;BME280;61798;48.048;-1.928;2023-05-08T00:04:26;101528.66;;;11.51;100.00
45050;BME280;61798;48.048;-1.928;2023-05-08T00:06:32;101511.47;;;11.37;100.00
45050;BME280;61798;48.048;-1.928;2023-05-08T00:08:39;101529.38;;;11.45;100.00
45050;BME280;61798;48.048;-1.928;2023-05-08T00:10:46;101522.63;;;11.49;100.00
45050;BME280;61798;48.048;-1.928;2023-05-08T00:12:54;101526.50;;;11.47;100.00
45050;BME280;61798;48.048;-1.928;2023-05-08T00:15:00;101523.28;;;11.51;100.00
45050;BME280;61798;48.048;-1.928;2023-05-08T00:17:06;101521.06;;;11.55;100.00
45050;BME280;61798;48.048;-1.928;2023-05-08T00:19:12;101509.91;;;11.43;100.00
45050;BME280;61798;48.048;-1.928;2023-05-08T00:21:18;101523.66;;;11.48;100.00
45050;BME280;61798;48.048;-1.928;2023-05-08T00:23:25;101504.09;;;11.31;100.00
45050;BME280;61798;48.048;-1.928;2023-05-08T00:25:31;101526.31;;;11.48;100.00
45050;BME280;61798;48.048;-1.928;2023-05-08T00:27:39;101499.78;;;11.30;100.00
45050;BME280;61798;48.048;-1.928;2023-05-08T00:29:44;101523.53;;;11.41;100.00
45050;BME280;61798;48.048;-1.928;2023-05-08T00:31:50;101518.16;;;11.41;100.00
45050;BME280;61798;48.048;-1.928;2023-05-08T00:33:57;101524.00;;;11.45;100.00
45050;BME280;61798;48.048;-1.928;2023-05-08T00:36:05;101520.38;;;11.38;100.00
45050;BME280;61798;48.048;-1.928;2023-05-08T00:38:12;101520.31;;;11.46;100.00
45050;BME280;61798;48.048;-1.928;2023-05-08T00:40:18;101532.13;;;11.60;100.00
45050;BME280;61798;48.048;-1.928;2023-05-08T00:42:24;101528.66;;;11.51;100.00
45050;BME280;61798;48.048;-1.928;2023-05-08T00:44:31;101519.00;;;11.42;100.00
45050;BME280;61798;48.048;-1.928;2023-05-08T00:46:37;101528.66;;;11.51;100.00
45050;BME280;61798;48.048;-1.928;2023-05-08T00:48:44;101537.81;;;11.66;100.00
45050;BME280;61798;48.048;-1.928;2023-05-08T00:50:51;101526.66;;;11.53;100.00
45050;BME280;61798;48.048;-1.928;2023-05-08T00:53:01;101524.25;;;11.59;100.00
45050;BME280;61798;48.048;-1.928;2023-05-08T00:55:08;101515.53;;;11.57;100.00
45050;BME280;61798;48.048;-1.928;2023-05-08T00:57:15;101482.31;;;11.34;100.00
45050;BME280;61798;48.048;-1.928;2023-05-08T00:59:23;101477.28;;;11.31;100.00
45050;BME280;61798;48.048;-1.928;2023-05-08T01:01:30;101512.50;;;11.60;100.00
45050;BME280;61798;48.048;-1.928;2023-05-08T01:03:38;101522.47;;;11.74;100.00
45050;BME280;61798;48.048;-1.928;2023-05-08T01:05:44;101514.19;;;11.61;100.00
45050;BME280;61798;48.048;-1.928;2023-05-08T01:07:50;101523.19;;;11.68;100.00
45050;BME280;61798;48.048;-1.928;2023-05-08T01:09:58;101500.88;;;11.68;100.00
45050;BME280;61798;48.048;-1.928;2023-05-08T01:12:14;101521.56;;;11.59;100.00
45050;BME280;61798;48.048;-1.928;2023-05-08T01:14:52;101508.13;;;11.59;100.00
45050;BME280;61798;48.048;-1.928;2023-05-08T01:17:09;101523.91;;;11.62;100.00
45050;BME280;61798;48.048;-1.928;2023-05-08T01:34:23;101510.53;;;11.53;100.00
45050;BME280;61798;48.048;-1.928;2023-05-08T01:36:40;101509.34;;;11.56;100.00
45050;BME280;61798;48.048;-1.928;2023-05-08T01:41:24;101511.66;;;11.59;100.00
45050;BME280;61798;48.048;-1.928;2023-05-08T01:43:51;101512.53;;;11.51;100.00
45050;BME280;61798;48.048;-1.928;2023-05-08T01:46:02;101512.59;;;11.43;100.00
45050;BME280;61798;48.048;-1.928;2023-05-08T01:48:18;101512.25;;;11.46;100.00
45050;BME280;61798;48.048;-1.928;2023-05-08T01:50:32;101504.81;;;11.57;100.00
45050;BME280;61798;48.048;-1.928;2023-05-08T01:52:50;101507.84;;;11.53;100.00
45050;BME280;61798;48.048;-1.928;2023-05-08T01:55:10;101513.88;;;11.56;100.00
45050;BME280;61798;48.048;-1.928;2023-05-08T01:57:17;101511.38;;;11.54;100.00
45050;BME280;61798;48.048;-1.928;2023-05-08T01:59:26;101499.50;;;11.48;100.00
45050;BME280;61798;48.048;-1.928;2023-05-08T02:01:35;101509.81;;;11.60;100.00
45050;BME280;61798;48.048;-1.928;2023-05-08T02:03:43;101471.38;;;11.36;100.00
45050;BME280;61798;48.048;-1.928;2023-05-08T02:05:51;101501.28;;;11.56;100.00
45050;BME280;61798;48.048;-1.928;2023-05-08T02:08:00;101466.00;;;11.36;100.00
45050;BME280;61798;48.048;-1.928;2023-05-08T02:10:09;101502.47;;;11.53;100.00
45050;BME280;61798;48.048;-1.928;2023-05-08T02:12:16;101494.28;;;11.47;100.00
45050;BME280;61798;48.048;-1.928;2023-05-08T02:14:25;101466.00;;;11.36;100.00
45050;BME280;61798;48.048;-1.928;2023-05-08T02:16:32;101485.72;;;11.51;100.00
45050;BME280;61798;48.048;-1.928;2023-05-08T02:18:43;101489.75;;;11.47;100.00
45050;BME280;61798;48.048;-1.928;2023-05-08T02:20:52;101497.47;;;11.50;100.00
45050;BME280;61798;48.048;-1.928;2023-05-08T02:22:59;101495.31;;;11.46;100.00
45050;BME280;61798;48.048;-1.928;2023-05-08T02:25:08;101487.22;;;11.54;100.00
45050;BME280;61798;48.048;-1.928;2023-05-08T02:27:16;101479.38;;;11.44;100.00
45050;BME280;61798;48.048;-1.928;2023-05-08T02:29:24;101476.75;;;11.36;100.00
45050;BME280;61798;48.048;-1.928;2023-05-08T02:31:30;101454.00;;;11.23;100.00
45050;BME280;61798;48.048;-1.928;2023-05-08T02:33:40;101490.47;;;11.41;100.00
45050;BME280;61798;48.048;-1.928;2023-05-08T02:35:47;101483.75;;;11.45;100.00
45050;BME280;61798;48.048;-1.928;2023-05-08T02:37:56;101486.97;;;11.40;100.00
45050;BME280;61798;48.048;-1.928;2023-05-08T02:40:05;101477.59;;;11.36;100.00
45050;BME280;61798;48.048;-1.928;2023-05-08T02:42:14;101477.41;;;11.38;100.00
45050;BME280;61798;48.048;-1.928;2023-05-08T02:44:20;101453.72;;;11.18;100.00
45050;BME280;61798;48.048;-1.928;2023-05-08T02:49:06;101476.16;;;11.25;100.00
45050;BME280;61798;48.048;-1.928;2023-05-08T02:51:36;101478.72;;;11.18;100.00
45050;BME280;61798;48.048;-1.928;2023-05-08T02:54:08;101479.72;;;11.17;100.00
45050;BME280;61798;48.048;-1.928;2023-05-08T02:57:09;101479.03;;;11.15;100.00
45050;BME280;61798;48.048;-1.928;2023-05-08T02:59:04;101484.59;;;11.14;100.00
45050;BME280;61798;48.048;-1.928;2023-05-08T03:01:32;101475.59;;;11.06;100.00
45050;BME280;61798;48.048;-1.928;2023-05-08T03:03:50;101488.75;;;11.16;100.00
45050;BME280;61798;48.048;-1.928;2023-05-08T03:05:59;101483.19;;;11.26;100.00
45050;BME280;61798;48.048;-1.928;2023-05-08T03:08:10;101484.44;;;11.39;100.00
45050;BME280;61798;48.048;-1.928;2023-05-08T03:10:21;101492.38;;;11.56;100.00
45050;BME280;61798;48.048;-1.928;2023-05-08T03:12:31;101490.59;;;11.48;100.00
45050;BME280;61798;48.048;-1.928;2023-05-08T03:14:45;101483.97;;;11.35;100.00
45050;BME280;61798;48.048;-1.928;2023-05-08T03:16:58;101493.47;;;11.46;100.00
45050;BME280;61798;48.048;-1.928;2023-05-08T03:19:11;101498.75;;;11.55;100.00
45050;BME280;61798;48.048;-1.928;2023-05-08T03:21:20;101464.22;;;11.28;100.00
45050;BME280;61798;48.048;-1.928;2023-05-08T03:23:28;101470.53;;;11.35;100.00
45050;BME280;61798;48.048;-1.928;2023-05-08T03:25:38;101428.78;;;11.09;100.00
45050;BME280;61798;48.048;-1.928;2023-05-08T03:27:46;101488.59;;;11.50;100.00
45050;BME280;61798;48.048;-1.928;2023-05-08T03:29:54;101462.00;;;11.31;100.00
45050;BME280;61798;48.048;-1.928;2023-05-08T03:32:01;101458.00;;;11.27;100.00
45050;BME280;61798;48.048;-1.928;2023-05-08T03:34:11;101485.22;;;11.48;100.00
45050;BME280;61798;48.048;-1.928;2023-05-08T03:36:18;101481.91;;;11.46;100.00
45050;BME280;61798;48.048;-1.928;2023-05-08T03:38:24;101469.19;;;11.39;100.00
45050;BME280;61798;48.048;-1.928;2023-05-08T03:40:33;101478.97;;;11.56;100.00
45050;BME280;61798;48.048;-1.928;2023-05-08T03:42:42;101441.97;;;11.42;100.00
45050;BME280;61798;48.048;-1.928;2023-05-08T03:44:51;101476.53;;;11.69;100.00
45050;BME280;61798;48.048;-1.928;2023-05-08T03:46:57;101465.78;;;11.69;100.00
45050;BME280;61798;48.048;-1.928;2023-05-08T03:49:06;101474.22;;;11.66;100.00
45050;BME280;61798;48.048;-1.928;2023-05-08T03:51:14;101455.16;;;11.52;100.00
45050;BME280;61798;48.048;-1.928;2023-05-08T03:53:20;101461.84;;;11.57;100.00
45050;BME280;61798;48.048;-1.928;2023-05-08T03:55:29;101426.44;;;11.38;100.00
45050;BME280;61798;48.048;-1.928;2023-05-08T03:58:09;101463.28;;;11.68;100.00
45050;BME280;61798;48.048;-1.928;2023-05-08T04:03:21;101453.84;;;11.72;100.00
45050;BME280;61798;48.048;-1.928;2023-05-08T04:08:23;101446.88;;;11.62;100.00
45050;BME280;61798;48.048;-1.928;2023-05-08T04:10:36;101455.94;;;11.61;100.00
45050;BME280;61798;48.048;-1.928;2023-05-08T04:13:06;101459.09;;;11.65;100.00
45050;BME280;61798;48.048;-1.928;2023-05-08T04:15:27;101454.22;;;11.69;100.00
45050;BME280;61798;48.048;-1.928;2023-05-08T04:17:41;101451.41;;;11.62;100.00
45050;BME280;61798;48.048;-1.928;2023-05-08T04:19:54;101444.94;;;11.71;100.00
45050;BME280;61798;48.048;-1.928;2023-05-08T04:22:07;101416.22;;;11.57;100.00
45050;BME280;61798;48.048;-1.928;2023-05-08T04:24:16;101457.84;;;11.76;100.00
45050;BME280;61798;48.048;-1.928;2023-05-08T04:26:22;101450.31;;;11.71;100.00
45050;BME280;61798;48.048;-1.928;2023-05-08T04:28:27;101444.88;;;11.80;100.00
45050;BME280;61798;48.048;-1.928;2023-05-08T04:30:35;101442.81;;;11.67;100.00
45050;BME280;61798;48.048;-1.928;2023-05-08T04:32:41;101449.84;;;11.68;100.00
45050;BME280;61798;48.048;-1.928;2023-05-08T04:34:49;101444.00;;;11.64;100.00
45050;BME280;61798;48.048;-1.928;2023-05-08T04:36:55;101418.06;;;11.56;100.00
45050;BME280;61798;48.048;-1.928;2023-05-08T04:39:02;101441.31;;;11.64;100.00
45050;BME280;61798;48.048;-1.928;2023-05-08T04:41:08;101447.00;;;11.69;100.00
45050;BME280;61798;48.048;-1.928;2023-05-08T04:43:14;101418.53;;;11.60;100.00
45050;BME280;61798;48.048;-1.928;2023-05-08T04:45:21;101452.94;;;11.80;100.00
45050;BME280;61798;48.048;-1.928;2023-05-08T04:47:27;101432.25;;;11.65;100.00
45050;BME280;61798;48.048;-1.928;2023-05-08T04:49:34;101446.56;;;11.81;100.00
45050;BME280;61798;48.048;-1.928;2023-05-08T04:51:40;101458.63;;;11.85;100.00
45050;BME280;61798;48.048;-1.928;2023-05-08T04:53:46;101452.94;;;11.80;100.00
45050;BME280;61798;48.048;-1.928;2023-05-08T04:55:52;101464.16;;;11.83;100.00
45050;BME280;61798;48.048;-1.928;2023-05-08T04:57:58;101456.94;;;11.84;100.00
45050;BME280;61798;48.048;-1.928;2023-05-08T05:00:06;101456.84;;;11.77;100.00
45050;BME280;61798;48.048;-1.928;2023-05-08T05:02:12;101446.00;;;11.70;100.00
45050;BME280;61798;48.048;-1.928;2023-05-08T05:04:20;101477.69;;;11.90;100.00
45050;BME280;61798;48.048;-1.928;2023-05-08T05:06:26;101459.94;;;11.89;100.00
45050;BME280;61798;48.048;-1.928;2023-05-08T05:08:32;101468.63;;;11.91;100.00
45050;BME280;61798;48.048;-1.928;2023-05-08T05:10:39;101466.94;;;11.90;100.00
45050;BME280;61798;48.048;-1.928;2023-05-08T05:12:45;101437.84;;;11.79;100.00
45050;BME280;61798;48.048;-1.928;2023-05-08T05:14:52;101439.03;;;11.76;100.00
45050;BME280;61798;48.048;-1.928;2023-05-08T05:16:58;101481.50;;;11.96;100.00
45050;BME280;61798;48.048;-1.928;2023-05-08T05:19:05;101454.41;;;11.82;100.00
45050;BME280;61798;48.048;-1.928;2023-05-08T05:21:12;101488.56;;;11.97;100.00
45050;BME280;61798;48.048;-1.928;2023-05-08T05:23:18;101486.41;;;11.92;100.00
45050;BME280;61798;48.048;-1.928;2023-05-08T05:25:24;101478.47;;;11.99;100.00
45050;BME280;61798;48.048;-1.928;2023-05-08T05:27:34;101492.34;;;12.03;100.00
45050;BME280;61798;48.048;-1.928;2023-05-08T05:29:42;101474.28;;;11.97;100.00
45050;BME280;61798;48.048;-1.928;2023-05-08T05:31:48;101493.97;;;12.12;100.00
45050;BME280;61798;48.048;-1.928;2023-05-08T05:33:55;101489.03;;;12.01;100.00
45050;BME280;61798;48.048;-1.928;2023-05-08T05:36:04;101474.94;;;11.99;100.00
45050;BME280;61798;48.048;-1.928;2023-05-08T05:38:10;101479.75;;;12.03;100.00
45050;BME280;61798;48.048;-1.928;2023-05-08T05:40:17;101492.03;;;12.06;100.00
45050;BME280;61798;48.048;-1.928;2023-05-08T05:42:22;101490.34;;;12.05;100.00
45050;BME280;61798;48.048;-1.928;2023-05-08T05:44:28;101486.81;;;12.04;100.00
45050;BME280;61798;48.048;-1.928;2023-05-08T05:46:35;101471.06;;;12.01;100.00
45050;BME280;61798;48.048;-1.928;2023-05-08T05:48:42;101492.28;;;12.11;100.00
45050;BME280;61798;48.048;-1.928;2023-05-08T05:50:51;101477.38;;;12.09;100.00
45050;BME280;61798;48.048;-1.928;2023-05-08T05:52:59;101464.09;;;11.92;100.00
45050;BME280;61798;48.048;-1.928;2023-05-08T05:55:06;101477.06;;;12.03;100.00
45050;BME280;61798;48.048;-1.928;2023-05-08T05:57:12;101473.34;;;11.89;100.00
45050;BME280;61798;48.048;-1.928;2023-05-08T05:59:19;101461.66;;;11.82;100.00
45050;BME280;61798;48.048;-1.928;2023-05-08T06:01:25;101498.78;;;12.02;100.00
45050;BME280;61798;48.048;-1.928;2023-05-08T06:03:33;101505.16;;;12.01;100.00
45050;BME280;61798;48.048;-1.928;2023-05-08T06:05:40;101501.47;;;12.02;100.00
45050;BME280;61798;48.048;-1.928;2023-05-08T06:07:47;101501.63;;;12.00;100.00
45050;BME280;61798;48.048;-1.928;2023-05-08T06:09:54;101503.84;;;11.97;100.00
45050;BME280;61798;48.048;-1.928;2023-05-08T06:12:02;101512.84;;;12.04;100.00
45050;BME280;61798;48.048;-1.928;2023-05-08T06:14:09;101471.75;;;11.80;100.00
45050;BME280;61798;48.048;-1.928;2023-05-08T06:16:16;101506.34;;;11.98;100.00
45050;BME280;61798;48.048;-1.928;2023-05-08T06:18:26;101516.53;;;12.03;100.00
45050;BME280;61798;48.048;-1.928;2023-05-08T06:20:33;101489.00;;;11.86;100.00
45050;BME280;61798;48.048;-1.928;2023-05-08T06:22:41;101524.34;;;12.13;100.00
45050;BME280;61798;48.048;-1.928;2023-05-08T06:24:49;101528.72;;;12.14;100.00
45050;BME280;61798;48.048;-1.928;2023-05-08T06:26:59;101512.41;;;12.15;100.00
45050;BME280;61798;48.048;-1.928;2023-05-08T06:29:06;101489.63;;;11.88;100.00
45050;BME280;61798;48.048;-1.928;2023-05-08T06:31:13;101521.44;;;11.99;100.00
45050;BME280;61798;48.048;-1.928;2023-05-08T06:33:20;101517.84;;;12.07;100.00
45050;BME280;61798;48.048;-1.928;2023-05-08T06:35:27;101513.91;;;11.94;100.00
45050;BME280;61798;48.048;-1.928;2023-05-08T06:37:35;101535.28;;;12.11;100.00
45050;BME280;61798;48.048;-1.928;2023-05-08T06:39:42;101513.50;;;12.06;100.00
45050;BME280;61798;48.048;-1.928;2023-05-08T06:41:49;101500.69;;;11.93;100.00
45050;BME280;61798;48.048;-1.928;2023-05-08T06:43:56;101522.22;;;12.08;100.00
45050;BME280;61798;48.048;-1.928;2023-05-08T06:46:02;101528.06;;;12.12;100.00
45050;BME280;61798;48.048;-1.928;2023-05-08T06:48:09;101516.94;;;12.15;100.00
45050;BME280;61798;48.048;-1.928;2023-05-08T06:50:16;101510.41;;;12.18;100.00
45050;BME280;61798;48.048;-1.928;2023-05-08T06:52:24;101507.09;;;12.07;100.00
45050;BME280;61798;48.048;-1.928;2023-05-08T06:54:31;101512.06;;;12.19;100.00
45050;BME280;61798;48.048;-1.928;2023-05-08T06:56:37;101520.78;;;12.21;100.00
45050;BME280;61798;48.048;-1.928;2023-05-08T06:58:44;101517.19;;;12.29;100.00
45050;BME280;61798;48.048;-1.928;2023-05-08T07:00:50;101520.53;;;12.31;100.00
45050;BME280;61798;48.048;-1.928;2023-05-08T07:02:57;101509.13;;;12.29;100.00
45050;BME280;61798;48.048;-1.928;2023-05-08T07:05:03;101517.13;;;12.37;100.00
45050;BME280;61798;48.048;-1.928;2023-05-08T07:07:10;101528.03;;;12.35;100.00
45050;BME280;61798;48.048;-1.928;2023-05-08T07:09:17;101526.19;;;12.36;100.00
45050;BME280;61798;48.048;-1.928;2023-05-08T07:11:23;101523.41;;;12.29;100.00
45050;BME280;61798;48.048;-1.928;2023-05-08T07:13:31;101522.66;;;12.35;100.00
45050;BME280;61798;48.048;-1.928;2023-05-08T07:15:37;101518.59;;;12.40;100.00
45050;BME280;61798;48.048;-1.928;2023-05-08T07:17:44;101525.81;;;12.39;100.00
45050;BME280;61798;48.048;-1.928;2023-05-08T07:19:53;101474.03;;;12.06;100.00
45050;BME280;61798;48.048;-1.928;2023-05-08T07:22:00;101542.97;;;12.38;100.00
45050;BME280;61798;48.048;-1.928;2023-05-08T07:24:07;101546.78;;;12.44;100.00
45050;BME280;61798;48.048;-1.928;2023-05-08T07:26:14;101536.19;;;12.42;100.00
45050;BME280;61798;48.048;-1.928;2023-05-08T07:28:21;101526.03;;;12.37;100.00
45050;BME280;61798;48.048;-1.928;2023-05-08T07:30:27;101525.34;;;12.35;100.00
45050;BME280;61798;48.048;-1.928;2023-05-08T07:32:34;101553.56;;;12.55;100.00
45050;BME280;61798;48.048;-1.928;2023-05-08T07:34:40;101535.47;;;12.48;100.00
45050;BME280;61798;48.048;-1.928;2023-05-08T07:36:46;101541.16;;;12.54;100.00
45050;BME280;61798;48.048;-1.928;2023-05-08T07:38:53;101552.94;;;12.68;100.00
45050;BME280;61798;48.048;-1.928;2023-05-08T07:40:59;101525.94;;;12.61;100.00
45050;BME280;61798;48.048;-1.928;2023-05-08T07:43:07;101539.47;;;12.68;100.00
45050;BME280;61798;48.048;-1.928;2023-05-08T07:45:14;101513.06;;;12.56;100.00
45050;BME280;61798;48.048;-1.928;2023-05-08T07:47:20;101520.13;;;12.57;100.00
45050;BME280;61798;48.048;-1.928;2023-05-08T07:49:28;101535.03;;;12.75;100.00
45050;BME280;61798;48.048;-1.928;2023-05-08T07:51:33;101533.63;;;12.79;100.00
45050;BME280;61798;48.048;-1.928;2023-05-08T07:53:41;101528.34;;;12.86;100.00
45050;BME280;61798;48.048;-1.928;2023-05-08T07:55:47;101525.56;;;12.79;100.00
45050;BME280;61798;48.048;-1.928;2023-05-08T07:57:54;101543.19;;;12.97;100.00
45050;BME280;61798;48.048;-1.928;2023-05-08T08:00:01;101524.72;;;12.94;100.00
45050;BME280;61798;48.048;-1.928;2023-05-08T08:02:11;101535.47;;;12.94;100.00
45050;BME280;61798;48.048;-1.928;2023-05-08T08:04:19;101524.00;;;13.00;100.00
45050;BME280;61798;48.048;-1.928;2023-05-08T08:06:27;101535.28;;;13.11;100.00
45050;BME280;61798;48.048;-1.928;2023-05-08T08:08:34;101519.97;;;13.11;100.00
45050;BME280;61798;48.048;-1.928;2023-05-08T08:10:42;101514.03;;;13.16;100.00
45050;BME280;61798;48.048;-1.928;2023-05-08T08:12:49;101531.72;;;13.26;100.00
45050;BME280;61798;48.048;-1.928;2023-05-08T08:14:56;101511.25;;;13.25;100.00
45050;BME280;61798;48.048;-1.928;2023-05-08T08:17:03;101523.03;;;13.24;100.00
45050;BME280;61798;48.048;-1.928;2023-05-08T08:19:11;101513.38;;;13.14;100.00
45050;BME280;61798;48.048;-1.928;2023-05-08T08:21:18;101520.06;;;13.18;100.00
45050;BME280;61798;48.048;-1.928;2023-05-08T08:23:25;101532.09;;;13.22;100.00
45050;BME280;61798;48.048;-1.928;2023-05-08T08:25:31;101506.25;;;13.06;100.00
45050;BME280;61798;48.048;-1.928;2023-05-08T08:27:37;101522.25;;;13.30;100.00
45050;BME280;61798;48.048;-1.928;2023-05-08T08:29:45;101512.25;;;13.24;100.00
45050;BME280;61798;48.048;-1.928;2023-05-08T08:31:51;101510.47;;;13.31;100.00
45050;BME280;61798;48.048;-1.928;2023-05-08T08:33:58;101532.44;;;13.35;100.00
45050;BME280;61798;48.048;-1.928;2023-05-08T08:36:04;101497.78;;;13.25;100.00
45050;BME280;61798;48.048;-1.928;2023-05-08T08:38:18;101520.84;;;13.34;100.00
45050;BME280;61798;48.048;-1.928;2023-05-08T08:40:24;101522.22;;;13.60;100.00
45050;BME280;61798;48.048;-1.928;2023-05-08T08:42:30;101512.72;;;13.64;100.00
45050;BME280;61798;48.048;-1.928;2023-05-08T08:44:36;101494.09;;;13.48;100.00
45050;BME280;61798;48.048;-1.928;2023-05-08T08:46:51;101488.75;;;13.54;100.00
45050;BME280;61798;48.048;-1.928;2023-05-08T08:48:58;101496.94;;;13.61;100.00
45050;BME280;61798;48.048;-1.928;2023-05-08T08:51:08;101507.56;;;13.70;100.00
45050;BME280;61798;48.048;-1.928;2023-05-08T08:53:26;101504.88;;;13.70;100.00
45050;BME280;61798;48.048;-1.928;2023-05-08T08:55:36;101506.69;;;13.84;100.00
45050;BME280;61798;48.048;-1.928;2023-05-08T08:57:51;101478.44;;;13.58;100.00
45050;BME280;61798;48.048;-1.928;2023-05-08T09:00:02;101516.19;;;13.80;100.00
45050;BME280;61798;48.048;-1.928;2023-05-08T09:02:13;101458.41;;;13.46;100.00
45050;BME280;61798;48.048;-1.928;2023-05-08T09:04:23;101494.78;;;13.57;100.00
45050;BME280;61798;48.048;-1.928;2023-05-08T09:06:36;101515.22;;;13.51;100.00
45050;BME280;61798;48.048;-1.928;2023-05-08T09:08:44;101516.84;;;13.45;100.00
45050;BME280;61798;48.048;-1.928;2023-05-08T09:10:52;101529.16;;;13.54;100.00
45050;BME280;61798;48.048;-1.928;2023-05-08T09:13:00;101527.41;;;13.47;100.00
45050;BME280;61798;48.048;-1.928;2023-05-08T09:15:06;101539.53;;;13.58;100.00
45050;BME280;61798;48.048;-1.928;2023-05-08T09:17:13;101512.28;;;13.46;100.00
45050;BME280;61798;48.048;-1.928;2023-05-08T09:19:19;101477.16;;;13.32;100.00
45050;BME280;61798;48.048;-1.928;2023-05-08T09:21:27;101522.47;;;13.50;100.00
45050;BME280;61798;48.048;-1.928;2023-05-08T09:24:00;101534.97;;;13.58;100.00
45050;BME280;61798;48.048;-1.928;2023-05-08T09:26:06;101520.00;;;13.49;100.00
45050;BME280;61798;48.048;-1.928;2023-05-08T09:28:31;101527.84;;;13.50;100.00
45050;BME280;61798;48.048;-1.928;2023-05-08T09:30:47;101535.09;;;13.65;100.00
45050;BME280;61798;48.048;-1.928;2023-05-08T09:33:00;101536.72;;;13.81;100.00
45050;BME280;61798;48.048;-1.928;2023-05-08T09:35:07;101539.13;;;13.98;100.00
45050;BME280;61798;48.048;-1.928;2023-05-08T09:37:14;101532.13;;;14.04;100.00
45050;BME280;61798;48.048;-1.928;2023-05-08T09:39:24;101543.13;;;13.80;100.00
45050;BME280;61798;48.048;-1.928;2023-05-08T09:41:30;101539.25;;;13.68;100.00
45050;BME280;61798;48.048;-1.928;2023-05-08T09:43:37;101538.38;;;13.60;100.00
45050;BME280;61798;48.048;-1.928;2023-05-08T09:45:43;101532.06;;;13.53;100.00
45050;BME280;61798;48.048;-1.928;2023-05-08T09:47:50;101511.53;;;13.52;100.00
45050;BME280;61798;48.048;-1.928;2023-05-08T09:50:07;101531.06;;;13.76;100.00
45050;BME280;61798;48.048;-1.928;2023-05-08T09:52:17;101502.06;;;13.78;100.00
45050;BME280;61798;48.048;-1.928;2023-05-08T09:54:24;101510.91;;;13.72;100.00
45050;BME280;61798;48.048;-1.928;2023-05-08T09:56:35;101506.75;;;13.69;100.00
45050;BME280;61798;48.048;-1.928;2023-05-08T09:58:43;101498.22;;;13.66;100.00
45050;BME280;61798;48.048;-1.928;2023-05-08T10:00:49;101479.91;;;14.05;100.00
45050;BME280;61798;48.048;-1.928;2023-05-08T10:02:59;101495.31;;;14.47;100.00
45050;BME280;61798;48.048;-1.928;2023-05-08T10:07:31;101473.50;;;14.42;100.00
45050;BME280;61798;48.048;-1.928;2023-05-08T10:09:37;101461.41;;;14.66;100.00
45050;BME280;61798;48.048;-1.928;2023-05-08T10:11:50;101470.53;;;15.08;100.00
45050;BME280;61798;48.048;-1.928;2023-05-08T10:13:58;101461.28;;;15.51;100.00
45050;BME280;61798;48.048;-1.928;2023-05-08T10:16:04;101459.78;;;15.42;100.00
45050;BME280;61798;48.048;-1.928;2023-05-08T10:18:14;101447.91;;;15.16;100.00
45050;BME280;61798;48.048;-1.928;2023-05-08T10:20:22;101448.38;;;15.40;100.00
45050;BME280;61798;48.048;-1.928;2023-05-08T10:22:31;101420.72;;;15.31;100.00
45050;BME280;61798;48.048;-1.928;2023-05-08T10:24:43;101448.56;;;15.31;100.00
45050;BME280;61798;48.048;-1.928;2023-05-08T10:27:16;101447.69;;;15.10;100.00
45050;BME280;61798;48.048;-1.928;2023-05-08T10:29:31;101428.31;;;14.93;100.00
45050;BME280;61798;48.048;-1.928;2023-05-08T10:31:39;101419.72;;;14.76;100.00
45050;BME280;61798;48.048;-1.928;2023-05-08T10:33:49;101445.47;;;14.78;100.00
45050;BME280;61798;48.048;-1.928;2023-05-08T10:36:00;101453.72;;;14.70;100.00
45050;BME280;61798;48.048;-1.928;2023-05-08T10:38:09;101416.72;;;14.50;100.00
45050;BME280;61798;48.048;-1.928;2023-05-08T10:40:17;101424.63;;;14.52;100.00
45050;BME280;61798;48.048;-1.928;2023-05-08T10:42:32;101457.50;;;14.76;100.00
45050;BME280;61798;48.048;-1.928;2023-05-08T10:44:44;101459.25;;;14.90;100.00
45050;BME280;61798;48.048;-1.928;2023-05-08T10:52:17;101471.22;;;14.81;100.00
45050;BME280;61798;48.048;-1.928;2023-05-08T10:54:50;101469.72;;;14.65;100.00
45050;BME280;61798;48.048;-1.928;2023-05-08T10:57:11;101463.38;;;14.51;100.00
45050;BME280;61798;48.048;-1.928;2023-05-08T10:59:19;101456.44;;;14.34;100.00
45050;BME280;61798;48.048;-1.928;2023-05-08T11:01:26;101449.34;;;14.26;100.00
45050;BME280;61798;48.048;-1.928;2023-05-08T11:03:42;101446.69;;;14.33;100.00
45050;BME280;61798;48.048;-1.928;2023-05-08T11:05:51;101449.47;;;14.47;100.00
45050;BME280;61798;48.048;-1.928;2023-05-08T11:07:58;101459.09;;;14.56;100.00
45050;BME280;61798;48.048;-1.928;2023-05-08T11:10:12;101435.06;;;14.68;100.00
45050;BME280;61798;48.048;-1.928;2023-05-08T11:12:25;101445.34;;;14.94;100.00
45050;BME280;61798;48.048;-1.928;2023-05-08T11:14:36;101456.72;;;14.89;100.00
45050;BME280;61798;48.048;-1.928;2023-05-08T11:19:19;101449.13;;;15.06;100.00
45050;BME280;61798;48.048;-1.928;2023-05-08T11:21:27;101445.22;;;15.16;100.00
45050;BME280;61798;48.048;-1.928;2023-05-08T11:23:35;101444.97;;;15.10;100.00
45050;BME280;61798;48.048;-1.928;2023-05-08T11:25:43;101447.09;;;15.22;100.00
45050;BME280;61798;48.048;-1.928;2023-05-08T11:32:57;101434.84;;;15.26;100.00
45050;BME280;61798;48.048;-1.928;2023-05-08T11:35:05;101430.28;;;15.20;100.00
45050;BME280;61798;48.048;-1.928;2023-05-08T11:37:22;101436.69;;;15.26;100.00
45050;BME280;61798;48.048;-1.928;2023-05-08T11:39:29;101424.25;;;15.38;100.00